createdAt,value
2022-08-12T00:04:20.987Z,45.7
2022-08-12T00:09:39.750Z,45.2
2022-08-12T00:14:58.521Z,45.2
2022-08-12T00:20:17.002Z,44.5
2022-08-12T00:26:24.797Z,44.1
2022-08-12T00:31:42.999Z,45
2022-08-12T00:37:14.565Z,44.5
2022-08-12T00:42:33.051Z,44.6
2022-08-12T00:47:51.595Z,45.2
2022-08-12T00:53:10.034Z,45.1
2022-08-12T00:58:28.794Z,45.3
2022-08-12T01:03:47.275Z,44.6
2022-08-12T01:09:05.765Z,44.3
2022-08-12T01:14:24.245Z,45.2
2022-08-12T01:19:42.463Z,45.3
2022-08-12T01:25:00.933Z,44.7
2022-08-12T01:30:19.706Z,44.8
2022-08-12T01:35:38.192Z,44.8
2022-08-12T01:40:56.862Z,44.2
2022-08-12T01:46:15.146Z,45
2022-08-12T01:52:23.092Z,45.1
2022-08-12T01:58:01.637Z,43.6
2022-08-12T02:03:20.116Z,43.4
2022-08-12T02:08:38.868Z,42.9
2022-08-12T02:13:57.362Z,43.8
2022-08-12T02:19:23.688Z,42.5
2022-08-12T02:24:42.171Z,43
2022-08-12T02:30:00.660Z,43.2
2022-08-12T02:35:19.149Z,42.2
2022-08-12T02:40:37.704Z,43
2022-08-12T02:45:56.458Z,42.2
2022-08-12T02:51:14.668Z,43.1
2022-08-12T02:56:33.024Z,41.9
2022-08-12T03:01:51.499Z,42.1
2022-08-12T03:07:09.987Z,42.5
2022-08-12T03:12:35.170Z,41.7
2022-08-12T03:18:29.117Z,42.4
2022-08-12T03:23:47.596Z,41.5
2022-08-12T03:29:06.081Z,41
2022-08-12T03:34:24.559Z,41.4
2022-08-12T03:39:42.842Z,41.7
2022-08-12T03:45:01.374Z,42.3
2022-08-12T03:50:19.578Z,41.8
2022-08-12T03:55:37.502Z,41.8
2022-08-12T04:00:56.290Z,42.3
2022-08-12T04:06:14.845Z,42
2022-08-12T04:11:33.607Z,42
2022-08-12T04:17:03.892Z,42.9
2022-08-12T04:22:22.081Z,42.2
2022-08-12T04:27:40.583Z,43
2022-08-12T04:32:58.788Z,42.9
2022-08-12T04:38:16.715Z,42.5
2022-08-12T04:44:02.845Z,43.1
2022-08-12T04:49:20.775Z,42.7
2022-08-12T04:54:39.530Z,42.6
2022-08-12T04:59:58.264Z,42.8
2022-08-12T05:05:17.034Z,43.5
2022-08-12T05:10:36.490Z,43.7
2022-08-12T05:16:09.593Z,43.9
2022-08-12T05:21:28.440Z,44
2022-08-12T05:26:47.218Z,43.3
2022-08-12T05:32:05.710Z,43.5
2022-08-12T05:37:24.192Z,44.1
2022-08-12T05:42:43.868Z,44.8
2022-08-12T05:48:02.563Z,43.1
2022-08-12T05:53:20.732Z,43.6
2022-08-12T05:58:38.934Z,43.6
2022-08-12T06:03:57.141Z,45.5
2022-08-12T06:09:15.317Z,45.4
2022-08-12T06:14:34.197Z,46.8
2022-08-12T06:20:34.634Z,47.7
2022-08-12T06:25:53.094Z,48
2022-08-12T06:31:28.327Z,47.7
2022-08-12T06:36:46.817Z,47.5
2022-08-12T06:42:34.032Z,46.3
2022-08-12T06:47:52.755Z,46.1
2022-08-12T06:53:10.964Z,46
2022-08-12T06:58:29.443Z,45.9
2022-08-12T07:03:47.913Z,46.9
2022-08-12T07:09:06.376Z,45.9
2022-08-12T07:14:24.840Z,46
2022-08-12T07:19:46.459Z,45.1
2022-08-12T07:25:04.934Z,45.9
2022-08-12T07:30:23.621Z,46.7
2022-08-12T07:35:41.902Z,45.6
2022-08-12T07:40:59.825Z,46.3
2022-08-12T07:46:18.020Z,46.3
2022-08-12T07:51:36.512Z,45.6
2022-08-12T07:56:55.272Z,44.3
2022-08-12T08:02:14.173Z,44.1
2022-08-12T08:07:32.326Z,44.3
2022-08-12T08:12:50.526Z,44
2022-08-12T08:18:09.285Z,44.1
2022-08-12T08:23:37.669Z,44.1
2022-08-12T08:28:55.866Z,44.6
2022-08-12T08:34:54.931Z,43.5
2022-08-12T08:40:13.451Z,45.1
2022-08-12T08:45:16.314Z,42.7
2022-08-12T08:50:34.513Z,43.3
2022-08-12T08:56:06.233Z,43.6
2022-08-12T09:01:25.256Z,44
2022-08-12T09:06:56.872Z,42.8
2022-08-12T09:12:30.576Z,41.2
2022-08-12T09:17:49.470Z,41.2
2022-08-12T09:34:36.125Z,41.2
2022-08-12T09:42:10.132Z,38.9
2022-08-12T09:48:02.288Z,39.9
2022-08-12T09:53:40.252Z,38.4
2022-08-12T09:59:03.073Z,39.8
2022-08-12T10:04:22.725Z,40
2022-08-12T10:10:01.322Z,38.9
2022-08-12T10:16:06.236Z,39.4
2022-08-12T10:21:38.216Z,40.7
2022-08-12T10:26:56.699Z,37.8
2022-08-12T10:32:56.674Z,40
2022-08-12T10:38:44.391Z,40.3
2022-08-12T10:44:03.244Z,39.5
2022-08-12T10:50:51.351Z,40.7
2022-08-12T10:56:14.484Z,40.4
2022-08-12T11:04:44.252Z,39.7
2022-08-12T11:10:08.024Z,41.9
2022-08-12T11:16:23.285Z,41.7
2022-08-12T11:22:03.465Z,41
2022-08-12T11:27:23.006Z,41.8
2022-08-12T11:32:47.519Z,42.1
2022-08-12T11:38:09.937Z,41.4
2022-08-12T11:43:58.455Z,41.4
2022-08-12T11:49:33.036Z,41.2
2022-08-12T11:54:51.646Z,41.7
2022-08-12T12:02:06.067Z,41.4
2022-08-12T12:08:45.914Z,42.9
2022-08-12T12:14:15.871Z,42.8
2022-08-12T12:19:46.970Z,42.6
2022-08-12T12:25:14.705Z,42.1
2022-08-12T12:30:33.475Z,43.1
2022-08-12T12:36:30.674Z,41.2
2022-08-12T12:43:00.427Z,40.7
2022-08-12T12:48:20.057Z,40.2
2022-08-12T12:54:10.447Z,40.8
2022-08-12T12:59:58.646Z,42.1
2022-08-12T13:05:17.113Z,41.8
2022-08-12T13:10:51.485Z,40.1
2022-08-12T13:16:21.209Z,40.2
2022-08-12T13:21:44.025Z,39
2022-08-12T13:27:03.757Z,39.3
2022-08-12T13:32:32.079Z,39.7
2022-08-12T13:37:55.976Z,39.4
2022-08-12T13:43:42.076Z,38.5
2022-08-12T13:49:03.243Z,39.5
2022-08-12T13:54:22.804Z,39.1
2022-08-12T14:00:00.902Z,39.7
2022-08-12T14:05:39.851Z,40.1
2022-08-12T14:10:59.607Z,40.5
2022-08-12T14:16:52.454Z,40.5
2022-08-12T14:22:10.921Z,40.4
2022-08-12T14:28:06.870Z,41.3
2022-08-12T14:33:25.532Z,41.2
2022-08-12T14:38:47.109Z,41.4
2022-08-12T14:45:02.238Z,41.5
2022-08-12T14:53:50.947Z,41.9
2022-08-12T15:00:34.429Z,40.9
2022-08-12T15:06:52.902Z,40.9
2022-08-12T15:12:15.504Z,41.4
2022-08-12T15:17:43.089Z,42.2
2022-08-12T15:23:03.745Z,41.9
2022-08-12T15:28:24.395Z,42
2022-08-12T15:33:46.728Z,42.4
2022-08-12T15:39:05.209Z,42
2022-08-12T15:44:43.526Z,42.4
2022-08-12T15:50:05.476Z,42.2
2022-08-12T15:55:33.957Z,41.8
2022-08-12T16:00:53.152Z,41.9
2022-08-12T16:07:03.617Z,41.9
2022-08-12T16:12:25.917Z,41.7
2022-08-12T16:18:26.791Z,42.1
2022-08-12T16:23:58.442Z,41.6
2022-08-12T16:29:23.016Z,41.5
2022-08-12T16:34:57.910Z,42.2
2022-08-12T16:40:19.286Z,42.8
2022-08-12T16:46:34.022Z,42.3
2022-08-12T16:51:52.263Z,42.2
2022-08-12T16:57:10.746Z,42.5
2022-08-12T17:02:34.736Z,41.9
2022-08-12T17:07:54.270Z,42.8
2022-08-12T17:13:14.780Z,41.7
2022-08-12T17:19:03.168Z,42
2022-08-12T17:24:31.386Z,42.6
2022-08-12T17:30:05.714Z,42.5
2022-08-12T17:35:43.089Z,43.3
2022-08-12T17:41:57.773Z,42
2022-08-12T17:47:35.906Z,42
2022-08-12T17:53:04.139Z,43.1
2022-08-12T17:58:38.334Z,43.3
2022-08-12T18:04:35.121Z,42.7
2022-08-12T18:09:54.471Z,43.4
2022-08-12T18:16:06.812Z,42.2
2022-08-12T18:22:02.988Z,42.9
2022-08-12T18:27:47.286Z,43.4
2022-08-12T18:33:12.253Z,42.8
2022-08-12T18:38:30.742Z,42.5
2022-08-12T18:44:02.960Z,42.4
2022-08-12T18:49:39.558Z,42.7
2022-08-12T18:55:08.437Z,43.2
2022-08-12T19:00:32.210Z,43.7
2022-08-12T19:05:55.726Z,42.4
2022-08-12T19:11:16.255Z,43.7
2022-08-12T19:16:35.512Z,43.8
2022-08-12T19:21:58.702Z,42.9
2022-08-12T19:27:16.892Z,43.5
2022-08-12T19:32:35.219Z,43
2022-08-12T19:38:07.777Z,42.7
2022-08-12T19:44:18.792Z,43.4
2022-08-12T19:49:40.447Z,43.8
2022-08-12T19:54:58.939Z,44.1
2022-08-12T20:00:18.199Z,43.4
2022-08-12T20:06:18.315Z,43
2022-08-12T20:12:31.066Z,43.5
2022-08-12T20:17:52.253Z,42.7
2022-08-12T20:23:19.291Z,42.9
2022-08-12T20:28:37.488Z,42.9
2022-08-12T20:33:57.658Z,44.1
2022-08-12T20:40:01.561Z,43.6
2022-08-12T20:45:50.857Z,43.8
2022-08-12T20:51:19.711Z,43.3
2022-08-12T20:56:40.189Z,44.1
2022-08-12T21:02:06.325Z,43.6
2022-08-12T21:07:24.794Z,43.2
2022-08-12T21:12:44.347Z,44.2
2022-08-12T21:18:31.767Z,43.1
2022-08-12T21:23:58.888Z,43.9
2022-08-12T21:29:17.188Z,43.8
2022-08-12T21:34:36.641Z,43.8
2022-08-12T21:39:57.519Z,44.1
2022-08-12T21:46:01.847Z,44.4
2022-08-12T21:51:40.235Z,44.1
2022-08-12T21:57:09.690Z,44.4
2022-08-12T22:02:48.742Z,43.8
2022-08-12T22:08:13.167Z,43.9
2022-08-12T22:14:08.982Z,43.4
2022-08-12T22:19:28.165Z,43.6
2022-08-12T22:24:48.918Z,44.3
2022-08-12T22:30:07.866Z,44.3
2022-08-12T22:35:59.340Z,44.3
2022-08-12T22:41:23.392Z,44.4
2022-08-12T22:46:54.677Z,44
2022-08-12T22:52:13.416Z,44.3
2022-08-12T22:57:55.336Z,43.5
2022-08-12T23:03:54.165Z,44.3
2022-08-12T23:09:16.725Z,43.4
2022-08-12T23:14:35.207Z,43.6
2022-08-12T23:19:54.476Z,44.3
2022-08-12T23:25:54.275Z,43.7
2022-08-12T23:31:13.393Z,43.3
2022-08-12T23:36:40.699Z,43.3
2022-08-12T23:42:19.756Z,43.9
2022-08-12T23:47:39.208Z,44.6
2022-08-12T23:53:22.534Z,43.5
2022-08-12T23:58:43.456Z,44.8
